createdAt,value
2023-03-15T00:02:06.884Z,99.90
2023-03-15T00:04:34.659Z,99.90
2023-03-15T00:07:03.072Z,99.90
2023-03-15T00:09:32.127Z,99.90
2023-03-15T00:11:59.893Z,99.90
2023-03-15T00:14:27.714Z,99.90
2023-03-15T00:16:55.667Z,99.90
2023-03-15T00:19:23.353Z,99.90
2023-03-15T00:21:51.040Z,99.90
2023-03-15T00:24:18.775Z,99.90
2023-03-15T00:26:47.820Z,99.90
2023-03-15T00:29:15.518Z,99.90
2023-03-15T00:31:43.247Z,99.90
2023-03-15T00:34:13.900Z,99.90
2023-03-15T00:36:43.471Z,99.90
2023-03-15T00:39:11.245Z,99.90
2023-03-15T00:41:39.233Z,99.90
2023-03-15T00:44:08.286Z,99.90
2023-03-15T00:46:36.037Z,99.90
2023-03-15T00:49:05.083Z,99.90
2023-03-15T00:51:33.699Z,99.90
2023-03-15T00:54:01.430Z,99.90
2023-03-15T00:56:30.092Z,99.90
2023-03-15T00:58:58.703Z,99.90
2023-03-15T01:01:29.775Z,99.90
2023-03-15T01:03:58.381Z,99.90
2023-03-15T01:06:27.576Z,99.90
2023-03-15T01:08:56.976Z,99.90
2023-03-15T01:11:27.454Z,99.90
2023-03-15T01:13:57.441Z,99.90
2023-03-15T01:16:25.603Z,99.90
2023-03-15T01:18:55.062Z,99.90
2023-03-15T01:21:24.297Z,99.90
2023-03-15T01:23:52.494Z,99.90
2023-03-15T01:26:20.367Z,99.90
2023-03-15T01:28:48.722Z,99.90
2023-03-15T01:31:20.043Z,99.90
2023-03-15T01:33:47.803Z,99.90
2023-03-15T01:36:17.120Z,99.90
2023-03-15T01:38:45.249Z,99.90
2023-03-15T01:41:14.217Z,99.90
2023-03-15T01:43:46.950Z,99.90
2023-03-15T01:46:34.063Z,99.90
2023-03-15T01:49:06.519Z,99.90
2023-03-15T01:51:41.583Z,99.90
2023-03-15T01:54:14.261Z,99.90
2023-03-15T01:56:46.622Z,99.90
2023-03-15T01:59:19.611Z,99.90
2023-03-15T02:01:48.691Z,99.90
2023-03-15T02:04:19.554Z,99.90
2023-03-15T02:06:50.419Z,99.90
2023-03-15T02:09:19.638Z,99.90
2023-03-15T02:11:48.266Z,99.90
2023-03-15T02:14:17.129Z,99.90
2023-03-15T02:16:45.149Z,99.90
2023-03-15T02:19:25.262Z,99.90
2023-03-15T02:22:02.482Z,99.90
2023-03-15T02:24:38.190Z,99.90
2023-03-15T02:27:06.007Z,99.90
2023-03-15T02:29:35.087Z,99.90
2023-03-15T02:32:05.033Z,99.90
2023-03-15T02:34:32.932Z,99.90
2023-03-15T02:37:00.743Z,99.90
2023-03-15T02:39:28.498Z,99.90
2023-03-15T02:41:58.296Z,99.90
2023-03-15T02:44:30.208Z,99.90
2023-03-15T02:47:04.315Z,99.90
2023-03-15T02:49:37.133Z,99.90
2023-03-15T02:52:05.409Z,99.90
2023-03-15T02:54:34.168Z,99.90
2023-03-15T02:57:02.310Z,99.90
2023-03-15T02:59:30.100Z,99.90
2023-03-15T03:01:59.261Z,99.90
2023-03-15T03:04:27.004Z,99.90
2023-03-15T03:06:54.732Z,99.90
2023-03-15T03:09:22.453Z,99.90
2023-03-15T03:11:50.153Z,99.90
2023-03-15T03:14:17.857Z,99.90
2023-03-15T03:16:45.601Z,99.90
2023-03-15T03:19:14.675Z,99.90
2023-03-15T03:21:44.278Z,99.90
2023-03-15T03:24:16.063Z,99.90
2023-03-15T03:26:46.124Z,99.90
2023-03-15T03:29:16.746Z,99.90
2023-03-15T03:31:45.366Z,99.90
2023-03-15T03:34:15.532Z,99.90
2023-03-15T03:36:43.645Z,99.90
2023-03-15T03:39:11.806Z,99.90
2023-03-15T03:41:39.492Z,99.90
2023-03-15T03:44:07.224Z,99.90
2023-03-15T03:46:36.194Z,99.90
2023-03-15T03:49:03.984Z,99.90
2023-03-15T03:51:34.051Z,99.90
2023-03-15T03:54:02.035Z,99.90
2023-03-15T03:56:29.778Z,99.90
2023-03-15T03:58:57.663Z,99.90
2023-03-15T04:01:25.374Z,99.90
2023-03-15T04:03:53.074Z,99.90
2023-03-15T04:06:22.434Z,99.90
2023-03-15T04:08:51.512Z,99.90
2023-03-15T04:11:19.204Z,99.90
2023-03-15T04:13:46.894Z,99.90
2023-03-15T04:16:14.687Z,99.90
2023-03-15T04:18:42.517Z,99.90
2023-03-15T04:21:11.250Z,99.90
2023-03-15T04:23:39.248Z,99.90
2023-03-15T04:26:08.328Z,99.90
2023-03-15T04:28:37.981Z,99.90
2023-03-15T04:31:10.451Z,99.90
2023-03-15T04:33:38.279Z,99.90
2023-03-15T04:36:06.368Z,99.90
2023-03-15T04:38:35.418Z,99.90
2023-03-15T04:41:10.698Z,99.90
2023-03-15T04:43:39.803Z,99.90
2023-03-15T04:46:07.714Z,99.90
2023-03-15T04:48:35.559Z,99.90
2023-03-15T04:51:03.387Z,99.90
2023-03-15T04:53:31.735Z,99.90
2023-03-15T04:55:59.447Z,99.90
2023-03-15T04:58:27.139Z,99.90
2023-03-15T05:00:56.209Z,99.90
2023-03-15T05:03:24.074Z,99.90
2023-03-15T05:05:51.805Z,99.90
2023-03-15T05:08:19.527Z,99.90
2023-03-15T05:10:47.244Z,99.90
2023-03-15T05:13:15.014Z,99.90
2023-03-15T05:15:42.739Z,99.90
2023-03-15T05:18:11.774Z,99.90
2023-03-15T05:20:39.470Z,99.90
2023-03-15T05:23:07.167Z,99.90
2023-03-15T05:25:37.642Z,99.90
2023-03-15T05:28:06.704Z,99.90
2023-03-15T05:30:34.480Z,99.90
2023-03-15T05:33:05.244Z,99.90
2023-03-15T05:35:34.299Z,99.90
2023-03-15T05:38:03.301Z,99.90
2023-03-15T05:40:31.028Z,99.90
2023-03-15T05:42:58.741Z,99.90
2023-03-15T05:45:26.466Z,99.90
2023-03-15T05:47:54.178Z,99.90
2023-03-15T05:50:21.870Z,99.90
2023-03-15T05:52:52.986Z,99.90
2023-03-15T05:55:20.699Z,99.90
2023-03-15T05:57:48.434Z,99.90
2023-03-15T06:00:17.167Z,99.90
2023-03-15T06:02:46.625Z,99.90
2023-03-15T06:05:14.399Z,99.90
2023-03-15T06:07:42.128Z,99.90
2023-03-15T06:10:12.636Z,99.90
2023-03-15T06:12:40.359Z,99.90
2023-03-15T06:15:09.226Z,99.90
2023-03-15T06:17:36.991Z,99.90
2023-03-15T06:20:05.279Z,99.90
2023-03-15T06:22:33.050Z,99.90
2023-03-15T06:25:00.754Z,99.90
2023-03-15T06:27:29.818Z,99.90
2023-03-15T06:29:58.341Z,99.90
2023-03-15T06:32:26.114Z,99.90
2023-03-15T06:34:53.996Z,99.90
2023-03-15T06:37:34.175Z,99.90
2023-03-15T06:40:04.096Z,99.90
2023-03-15T06:42:33.191Z,99.90
2023-03-15T06:45:01.073Z,99.90
2023-03-15T06:47:29.024Z,99.90
2023-03-15T06:49:57.016Z,99.90
2023-03-15T06:52:24.987Z,99.90
2023-03-15T06:54:52.707Z,99.90
2023-03-15T06:57:20.482Z,99.90
2023-03-15T06:59:49.683Z,99.90
2023-03-15T07:02:19.334Z,99.90
2023-03-15T07:04:47.880Z,99.90
2023-03-15T07:07:16.272Z,99.90
2023-03-15T07:09:44.097Z,99.90
2023-03-15T07:12:12.603Z,99.90
2023-03-15T07:14:40.327Z,99.90
2023-03-15T07:17:09.501Z,99.90
2023-03-15T07:19:41.396Z,99.90
2023-03-15T07:22:14.642Z,99.90
2023-03-15T07:24:42.357Z,99.90
2023-03-15T07:27:15.647Z,99.90
2023-03-15T07:29:44.323Z,99.90
2023-03-15T07:32:13.484Z,99.90
2023-03-15T07:34:41.332Z,99.90
2023-03-15T07:37:09.388Z,99.90
2023-03-15T07:39:37.124Z,99.90
2023-03-15T07:42:07.095Z,99.90
2023-03-15T07:44:34.986Z,99.90
2023-03-15T07:47:02.708Z,99.90
2023-03-15T07:49:31.889Z,99.90
2023-03-15T07:51:59.963Z,99.90
2023-03-15T07:54:29.440Z,99.90
2023-03-15T07:56:57.169Z,99.90
2023-03-15T07:59:24.899Z,99.90
2023-03-15T08:01:52.911Z,99.90
2023-03-15T08:04:21.177Z,99.90
2023-03-15T08:06:50.341Z,99.90
2023-03-15T08:09:18.176Z,99.90
2023-03-15T08:11:45.935Z,99.90
2023-03-15T08:14:13.788Z,99.90
2023-03-15T08:16:41.706Z,99.90
2023-03-15T08:19:10.293Z,99.90
2023-03-15T08:21:38.053Z,99.90
2023-03-15T08:24:07.759Z,99.90
2023-03-15T08:26:35.491Z,99.90
2023-03-15T08:29:03.212Z,99.90
2023-03-15T08:31:31.659Z,99.90
2023-03-15T08:33:59.544Z,99.90
2023-03-15T08:36:27.287Z,99.90
2023-03-15T08:38:55.029Z,99.90
2023-03-15T08:41:24.116Z,99.90
2023-03-15T08:43:51.826Z,99.90
2023-03-15T08:46:21.854Z,99.90
2023-03-15T08:48:49.794Z,99.90
2023-03-15T08:51:17.526Z,99.90
2023-03-15T08:53:45.278Z,99.90
2023-03-15T08:56:13.024Z,99.90
2023-03-15T08:58:42.560Z,99.90
2023-03-15T09:01:12.733Z,99.90
2023-03-15T09:03:42.363Z,99.90
2023-03-15T09:06:10.836Z,99.90
2023-03-15T09:08:38.663Z,99.90
2023-03-15T09:11:06.770Z,99.90
2023-03-15T09:13:34.589Z,99.90
2023-03-15T09:16:04.105Z,99.90
2023-03-15T09:18:32.178Z,99.90
2023-03-15T09:21:00.004Z,99.90
2023-03-15T09:23:27.860Z,99.90
2023-03-15T09:25:55.602Z,99.90
2023-03-15T09:28:25.395Z,99.90
2023-03-15T09:30:53.443Z,99.90
2023-03-15T09:33:23.496Z,99.90
2023-03-15T09:35:52.239Z,99.90
2023-03-15T09:38:22.006Z,99.90
2023-03-15T09:40:49.848Z,99.90
2023-03-15T09:43:36.508Z,99.90
2023-03-15T09:46:14.842Z,99.90
2023-03-15T09:48:51.628Z,99.90
2023-03-15T09:51:32.026Z,99.90
2023-03-15T09:54:02.599Z,99.90
2023-03-15T09:56:36.469Z,99.90
2023-03-15T09:59:05.921Z,99.90
2023-03-15T10:01:36.655Z,99.90
2023-03-15T10:04:13.513Z,99.90
2023-03-15T10:06:48.960Z,99.90
2023-03-15T10:09:21.696Z,99.90
2023-03-15T10:11:59.221Z,99.90
2023-03-15T10:14:39.234Z,99.90
2023-03-15T10:17:12.270Z,99.90
2023-03-15T10:19:50.069Z,99.90
2023-03-15T10:22:26.889Z,99.90
2023-03-15T10:24:58.119Z,99.90
2023-03-15T10:27:33.104Z,99.90
2023-03-15T10:30:02.181Z,99.90
2023-03-15T10:32:35.482Z,99.90
2023-03-15T10:35:14.604Z,99.90
2023-03-15T10:37:43.136Z,99.90
2023-03-15T10:40:16.154Z,99.90
2023-03-15T10:42:45.353Z,99.90
2023-03-15T10:45:21.740Z,99.90
2023-03-15T10:47:59.640Z,99.90
2023-03-15T10:50:32.140Z,99.90
2023-03-15T10:53:02.222Z,99.90
2023-03-15T10:55:34.522Z,99.90
2023-03-15T10:58:20.725Z,99.90
2023-03-15T11:00:51.780Z,99.90
2023-03-15T11:03:21.823Z,99.90
2023-03-15T11:05:52.072Z,99.90
2023-03-15T11:08:21.306Z,99.90
2023-03-15T11:10:57.044Z,99.90
2023-03-15T11:13:26.230Z,99.90
2023-03-15T11:16:03.803Z,99.90
2023-03-15T11:18:35.535Z,99.90
2023-03-15T11:21:08.046Z,99.90
2023-03-15T11:23:38.737Z,99.90
2023-03-15T11:26:07.056Z,99.90
2023-03-15T11:28:38.269Z,99.90
2023-03-15T11:31:07.058Z,99.90
2023-03-15T11:33:44.234Z,99.90
2023-03-15T11:36:19.404Z,99.90
2023-03-15T11:38:47.927Z,99.90
2023-03-15T11:41:26.651Z,99.90
2023-03-15T11:44:03.178Z,99.90
2023-03-15T11:46:35.356Z,99.90
2023-03-15T11:49:12.291Z,99.90
2023-03-15T11:51:41.618Z,99.90
2023-03-15T11:54:15.177Z,99.90
2023-03-15T11:56:49.451Z,99.90
2023-03-15T11:59:18.952Z,99.90
2023-03-15T12:01:49.564Z,99.90
2023-03-15T12:04:50.872Z,99.90
2023-03-15T12:07:33.156Z,99.90
2023-03-15T12:10:37.028Z,99.90
2023-03-15T12:13:18.978Z,99.90
2023-03-15T12:15:49.437Z,99.90
2023-03-15T12:18:31.059Z,99.90
2023-03-15T12:21:11.749Z,99.90
2023-03-15T12:23:44.469Z,99.90
2023-03-15T12:26:24.194Z,99.90
2023-03-15T12:28:54.399Z,99.90
2023-03-15T12:31:23.584Z,99.90
2023-03-15T12:33:53.957Z,99.90
2023-03-15T12:36:32.975Z,99.90
2023-03-15T12:39:20.664Z,99.90
2023-03-15T12:41:49.973Z,99.90
2023-03-15T12:44:26.308Z,99.90
2023-03-15T12:46:59.012Z,99.90
2023-03-15T12:49:38.740Z,99.90
2023-03-15T12:52:14.493Z,99.90
2023-03-15T12:54:47.618Z,99.90
2023-03-15T12:57:18.223Z,99.90
2023-03-15T12:59:51.440Z,99.90
2023-03-15T13:02:43.725Z,99.90
2023-03-15T13:05:21.665Z,99.90
2023-03-15T13:07:58.312Z,99.90
2023-03-15T13:10:39.245Z,99.90
2023-03-15T13:13:27.466Z,99.90
2023-03-15T13:16:15.422Z,99.90
2023-03-15T13:18:53.795Z,99.90
2023-03-15T13:21:26.331Z,99.90
2023-03-15T13:23:58.928Z,99.90
2023-03-15T13:26:44.302Z,99.90
2023-03-15T13:29:19.302Z,99.90
2023-03-15T13:31:48.347Z,99.90
2023-03-15T13:34:21.817Z,99.90
2023-03-15T13:36:55.208Z,99.90
2023-03-15T13:39:24.807Z,99.90
2023-03-15T13:41:59.627Z,99.90
2023-03-15T13:44:29.051Z,99.90
2023-03-15T13:46:57.774Z,99.90
2023-03-15T13:49:26.315Z,99.90
2023-03-15T13:51:55.127Z,99.90
2023-03-15T13:54:27.443Z,99.90
2023-03-15T13:57:01.571Z,99.90
2023-03-15T13:59:33.643Z,99.90
2023-03-15T14:02:03.489Z,99.90
2023-03-15T14:04:36.441Z,99.90
2023-03-15T14:07:19.788Z,99.90
2023-03-15T14:09:47.523Z,99.90
2023-03-15T14:12:23.017Z,99.90
2023-03-15T14:14:52.346Z,99.90
2023-03-15T14:17:26.913Z,99.90
2023-03-15T14:19:56.648Z,99.90
2023-03-15T14:22:25.196Z,99.90
2023-03-15T14:24:53.964Z,99.90
2023-03-15T14:27:26.920Z,99.90
2023-03-15T14:29:57.958Z,99.90
2023-03-15T14:32:29.208Z,99.90
2023-03-15T14:35:03.109Z,99.90
2023-03-15T14:37:36.055Z,99.90
2023-03-15T14:40:23.600Z,99.90
2023-03-15T14:42:52.696Z,99.90
2023-03-15T14:45:22.202Z,99.90
2023-03-15T14:47:57.513Z,99.90
2023-03-15T14:50:28.581Z,99.90
2023-03-15T14:52:58.401Z,99.90
2023-03-15T14:55:30.556Z,99.90
2023-03-15T14:58:00.011Z,99.90
2023-03-15T15:00:28.247Z,99.60
2023-03-15T15:02:57.776Z,99.90
2023-03-15T15:05:28.742Z,99.80
2023-03-15T15:08:02.896Z,99.90
2023-03-15T15:10:31.594Z,99.80
2023-03-15T15:13:06.383Z,99.50
2023-03-15T15:15:43.932Z,99.50
2023-03-15T15:18:21.967Z,99.50
2023-03-15T15:20:51.341Z,99.50
2023-03-15T15:23:21.997Z,99.80
2023-03-15T15:25:51.935Z,99.70
2023-03-15T15:28:34.230Z,99.50
2023-03-15T15:31:03.727Z,99.30
2023-03-15T15:33:31.543Z,98.70
2023-03-15T15:35:59.557Z,98.60
2023-03-15T15:38:32.795Z,97.80
2023-03-15T15:41:00.518Z,97.90
2023-03-15T15:43:31.296Z,98.00
2023-03-15T15:46:01.793Z,98.00
2023-03-15T15:48:29.660Z,98.00
2023-03-15T15:50:57.464Z,98.10
2023-03-15T15:53:25.239Z,98.20
2023-03-15T15:55:52.982Z,98.30
2023-03-15T15:58:22.730Z,98.40
2023-03-15T16:00:51.836Z,98.30
2023-03-15T16:03:19.715Z,98.40
2023-03-15T16:05:47.442Z,98.30
2023-03-15T16:08:22.204Z,98.30
2023-03-15T16:10:49.965Z,98.30
2023-03-15T16:13:18.095Z,98.30
2023-03-15T16:15:46.913Z,98.30
2023-03-15T16:18:16.079Z,98.40
2023-03-15T16:20:44.231Z,98.30
2023-03-15T16:23:20.537Z,98.40
2023-03-15T16:25:49.921Z,98.50
2023-03-15T16:28:17.788Z,98.70
2023-03-15T16:30:46.987Z,98.60
2023-03-15T16:33:18.217Z,98.50
2023-03-15T16:35:47.698Z,98.50
2023-03-15T16:38:23.891Z,98.50
2023-03-15T16:40:53.362Z,98.40
2023-03-15T16:43:22.522Z,98.50
2023-03-15T16:45:50.581Z,98.50
2023-03-15T16:48:19.821Z,98.50
2023-03-15T16:50:48.307Z,98.40
2023-03-15T16:53:19.800Z,98.50
2023-03-15T16:55:48.139Z,98.60
2023-03-15T16:58:20.918Z,98.60
2023-03-15T17:00:50.766Z,98.60
2023-03-15T17:03:21.142Z,98.70
2023-03-15T17:05:51.908Z,98.60
2023-03-15T17:08:22.498Z,98.60
2023-03-15T17:10:50.677Z,98.60
2023-03-15T17:13:26.378Z,98.70
2023-03-15T17:15:57.879Z,98.60
2023-03-15T17:18:29.097Z,98.60
2023-03-15T17:20:56.896Z,98.60
2023-03-15T17:23:26.348Z,98.70
2023-03-15T17:25:54.447Z,98.70
2023-03-15T17:32:13.719Z,98.80
2023-03-15T17:34:46.949Z,98.80
2023-03-15T17:37:15.651Z,98.90
2023-03-15T17:39:45.612Z,98.90
2023-03-15T17:42:14.232Z,98.90
2023-03-15T17:44:42.395Z,99.00
2023-03-15T17:47:12.141Z,99.00
2023-03-15T17:49:40.114Z,99.10
2023-03-15T17:52:17.181Z,99.10
2023-03-15T17:54:45.004Z,99.00
2023-03-15T17:57:13.464Z,99.00
2023-03-15T17:59:41.177Z,99.00
2023-03-15T18:02:14.960Z,99.00
2023-03-15T18:04:43.183Z,99.10
2023-03-15T18:07:11.006Z,99.00
2023-03-15T18:09:40.540Z,99.00
2023-03-15T18:12:10.516Z,99.00
2023-03-15T18:14:38.591Z,99.00
2023-03-15T18:17:06.498Z,99.10
2023-03-15T18:19:34.713Z,99.10
2023-03-15T18:22:02.763Z,99.10
2023-03-15T18:24:31.644Z,99.10
2023-03-15T18:27:01.502Z,99.10
2023-03-15T18:29:29.238Z,99.10
2023-03-15T18:31:57.013Z,99.10
2023-03-15T18:34:25.688Z,99.20
2023-03-15T18:36:53.391Z,99.20
2023-03-15T18:39:22.858Z,99.10
2023-03-15T18:41:50.580Z,99.20
2023-03-15T18:44:19.662Z,99.10
2023-03-15T18:46:47.947Z,99.20
2023-03-15T18:49:15.669Z,99.20
2023-03-15T18:51:43.475Z,99.20
2023-03-15T18:54:11.209Z,99.20
2023-03-15T18:56:39.097Z,99.20
2023-03-15T18:59:06.820Z,99.30
2023-03-15T19:01:35.986Z,99.40
2023-03-15T19:04:04.918Z,99.40
2023-03-15T19:06:32.981Z,99.50
2023-03-15T19:09:00.820Z,99.50
2023-03-15T19:11:31.699Z,99.60
2023-03-15T19:13:59.641Z,99.50
2023-03-15T19:16:30.577Z,99.50
2023-03-15T19:18:59.708Z,99.50
2023-03-15T19:21:27.463Z,99.60
2023-03-15T19:23:57.723Z,99.60
2023-03-15T19:26:25.935Z,99.60
2023-03-15T19:28:53.667Z,99.60
2023-03-15T19:31:21.661Z,99.60
2023-03-15T19:33:49.503Z,99.70
2023-03-15T19:36:18.652Z,99.60
2023-03-15T19:38:46.740Z,99.70
2023-03-15T19:41:14.572Z,99.70
2023-03-15T19:43:43.640Z,99.70
2023-03-15T19:46:14.047Z,99.70
2023-03-15T19:48:42.114Z,99.70
2023-03-15T19:51:10.172Z,99.70
2023-03-15T19:53:39.428Z,99.80
2023-03-15T19:56:08.254Z,99.80
2023-03-15T19:58:36.109Z,99.80
2023-03-15T20:01:04.864Z,99.80
2023-03-15T20:03:34.825Z,99.90
2023-03-15T20:06:06.715Z,99.90
2023-03-15T20:08:34.507Z,99.90
2023-03-15T20:11:04.877Z,99.80
2023-03-15T20:13:32.819Z,99.90
2023-03-15T20:16:01.200Z,99.90
2023-03-15T20:18:29.742Z,99.90
2023-03-15T20:20:57.647Z,99.90
2023-03-15T20:23:25.738Z,99.90
2023-03-15T20:25:53.451Z,99.90
2023-03-15T20:28:22.685Z,99.90
2023-03-15T20:30:50.597Z,99.90
2023-03-15T20:33:18.314Z,99.90
2023-03-15T20:35:46.934Z,99.90
2023-03-15T20:38:14.651Z,99.90
2023-03-15T20:40:42.545Z,99.90
2023-03-15T20:43:11.411Z,99.90
2023-03-15T20:45:41.650Z,99.90
2023-03-15T20:48:09.366Z,99.90
2023-03-15T20:50:37.757Z,99.90
2023-03-15T20:53:05.514Z,99.90
2023-03-15T20:55:33.533Z,99.90
2023-03-15T20:58:01.254Z,99.90
2023-03-15T21:00:29.776Z,99.90
2023-03-15T21:02:58.922Z,99.90
2023-03-15T21:05:27.781Z,99.90
2023-03-15T21:07:56.127Z,99.90
2023-03-15T21:10:24.248Z,99.90
2023-03-15T21:12:52.376Z,99.90
2023-03-15T21:15:20.343Z,99.90
2023-03-15T21:17:50.065Z,99.90
2023-03-15T21:20:19.377Z,99.90
2023-03-15T21:22:47.171Z,99.90
2023-03-15T21:25:14.921Z,99.90
2023-03-15T21:27:42.729Z,99.90
2023-03-15T21:30:13.716Z,99.90
2023-03-15T21:32:41.838Z,99.90
2023-03-15T21:35:10.144Z,99.90
2023-03-15T21:37:39.803Z,99.90
2023-03-15T21:40:08.949Z,99.90
2023-03-15T21:42:37.027Z,99.90
2023-03-15T21:45:07.012Z,99.90
2023-03-15T21:47:35.062Z,99.90
2023-03-15T21:50:02.887Z,99.90
2023-03-15T21:52:30.834Z,99.90
2023-03-15T21:54:59.912Z,99.90
2023-03-15T21:57:27.688Z,99.90
2023-03-15T21:59:55.421Z,99.90
2023-03-15T22:02:23.134Z,99.90
2023-03-15T22:04:51.714Z,99.90
2023-03-15T22:07:19.508Z,99.90
2023-03-15T22:09:47.252Z,99.90
2023-03-15T22:12:16.629Z,99.90
2023-03-15T22:14:45.897Z,99.90
2023-03-15T22:17:15.061Z,99.90
2023-03-15T22:19:42.783Z,99.90
2023-03-15T22:22:11.027Z,99.90
2023-03-15T22:24:38.799Z,99.90
2023-03-15T22:27:06.790Z,99.90
2023-03-15T22:29:35.936Z,99.90
2023-03-15T22:32:03.794Z,99.90
2023-03-15T22:34:34.171Z,99.90
2023-03-15T22:37:02.347Z,99.90
2023-03-15T22:39:31.219Z,99.90
2023-03-15T22:41:59.196Z,99.90
2023-03-15T22:44:28.916Z,99.90
2023-03-15T22:46:59.135Z,99.90
2023-03-15T22:49:26.864Z,99.90
2023-03-15T22:51:54.582Z,99.90
2023-03-15T22:54:22.310Z,99.90
2023-03-15T22:56:50.034Z,99.90
2023-03-15T22:59:17.859Z,99.90
2023-03-15T23:01:45.630Z,99.90
2023-03-15T23:04:14.775Z,99.90
2023-03-15T23:06:42.502Z,99.90
2023-03-15T23:09:10.307Z,99.90
2023-03-15T23:11:38.035Z,99.90
2023-03-15T23:14:05.973Z,99.90
2023-03-15T23:16:33.824Z,99.90
2023-03-15T23:19:02.923Z,99.90
2023-03-15T23:21:32.018Z,99.90
2023-03-15T23:23:59.763Z,99.90
2023-03-15T23:26:27.790Z,99.90
2023-03-15T23:28:55.925Z,99.90
2023-03-15T23:31:23.688Z,99.90
2023-03-15T23:33:51.418Z,99.90
2023-03-15T23:36:19.417Z,99.90
2023-03-15T23:38:48.518Z,99.90
2023-03-15T23:41:16.242Z,99.90
2023-03-15T23:43:43.974Z,99.90
2023-03-15T23:46:14.322Z,99.90
2023-03-15T23:48:42.255Z,99.90
2023-03-15T23:51:12.450Z,99.90
2023-03-15T23:53:40.213Z,99.90
2023-03-15T23:56:09.794Z,99.90
2023-03-15T23:58:38.177Z,99.90
